VOBG/BLR METAR and TAF weather

Enter ICAO airport designator
Station Type Date Time Source
VOBG METAR 2019/06/16 18:00 UTC NOAA

VOBG 161800Z 27006KT 8000 FEW015 26/19 Q1014


Station Type Date Time Source
VOBG Decoded METAR 2019/06/16 18:00 UTC NOAA

Bangalore / Hindustan, India (VOBG) 12-57N 077-40E
Jun 16, 2019 - 02:00 PM EDT / 2019.06.16 1800 UTC
Wind: from the W (270 degrees) at 7 MPH (6 KT):0
Visibility: 4 mile(s):0
Sky conditions: mostly clear
Temperature: 78 F (26 C)
Dew Point: 66 F (19 C)
Relative Humidity: 65%
Pressure (altimeter): 29.94 in. Hg (1014 hPa)
ob: VOBG 161800Z 27006KT 8000 FEW015 26/19 Q1014
cycle: 18

Station Type Date Time Source
VOBG TAF 2018/07/15 00:00 UTC NOAA

VOBG 142300Z 1500/1509 27010KT 6000 SCT010 BKN080
TEMPO 1500/1503 5000 BR SCT008 BKN080

Example: see airport list